Burr, NE (68324)

6:12 PM CDT on March 25, 2017 (GMT -0500)
Kosiba Home | | Change Station

Elev 1119 ft 40.63 °N, 96.22 °W | Updated 44 seconds ago

Overcast
Overcast
41.5 °F
Feels Like 37 °F
N
6.3
Wind Variable Wind from SE

Today
High -- | Low -- °F
--% Chance of Precip.
Yesterday
High -- | Low -- °F
Precip. -- in
Pressure 29.90 in
Visibility 4.0 miles
Clouds Overcast 800 ft
Windchill 37 °F
Dew Point 40 °F
Humidity 94%
Rainfall 0.51 in
Snow Depth Not available.
7:19 AM 7:42 PM
Waning Crescent, 6% visible
METAR KAFK 252255Z AUTO 03009KT 4SM BR OVC008 06/05 A2990 RMK AO2 T00550053
Pressure 29.90 in
Visibility 4.0 miles
Clouds Overcast 800 ft
Windchill 37 °F
Dew Point 40 °F
Humidity 94%
Rainfall 0.51 in
Snow Depth Not available.
7:19 AM 7:42 PM
Waning Crescent, 6% visible
METAR KAFK 252255Z AUTO 03009KT 4SM BR OVC008 06/05 A2990 RMK AO2 T00550053

Get Severe Weather Alerts

Thanks for signing up!

Be on the lookout for a verification email in your inbox.

You'll start receiving the daily forecast at 8 AM.

×

10-Day Weather Forecast

Almanac

Astronomy

Mar. 25, 2017 Rise Set
Actual Time
Civil Twilight
Nautical Twilight
Astronomical Twilight
Moon
Length of Visible Light
Length of Day
Tomorrow will be .
, % of the Moon is Illuminated

Today's Extremes

State Highs State Lows

Community

WunderPhotos

Upload Photos

1,962,540 photos uploaded!

WunderBlog® & News

Nearby

Air Quality

  Air Quality AQ Index Pollutant
Not available.

Snow Depth

Station Depth Elevation

Earthquake Activity

City Distance Mag. Time & Date
Minimum magnitude displayed is 2.5.

Earthquake Activity

City Distance Mag. Time & Date
Minimum magnitude displayed is 2.5.

Coastal Water Temperatures

Place Temperature

Stations

Nearby Weather Stations

Station Location Temp. Windchill Dew Point Humidity Wind Precip. Elev Updated Type
                   

Watches & Warnings

There are currently no watches in effect.